Flight Track Log - Related Links

Times and Time Zones

All times are in EDT time to prevent confusion due to time zone crossing. See the ASQ5958 flight status page for this flight to view local times or setup timezone preferences in your user account.

Time Position Orientation Groundspeed Altitude Reporting Facility
EDT Latitude Longitude Course Direction KTS MPH feet Rate Location/Type
Sun 02:35:10 PM 36.1953 -95.9125 270° West 169 194 1,400  Level Kansas City Center
Sun 02:35:40 PM 36.1953 -95.9383 270° West 172 198 2,300 2,505 Climbing Kansas City Center
Sun 02:36:41 PM 36.2247 -95.9864 307° West 217 250 5,200 2,084 Climbing Kansas City Center
Sun 02:37:15 PM 36.2456 -95.9681 35° Northeast 230 265 5,600 1,900 Climbing Kansas City Center
Sun 02:37:41 PM 36.2608 -95.9194 69° East 265 305 7,100 2,806 Climbing Kansas City Center
Sun 02:38:17 PM 36.2811 -95.8711 62° Northeast 259 298 8,500 2,327 Climbing Kansas City Center
Sun 02:39:19 PM 36.3136 -95.7864 65° Northeast 268 308 10,900 2,274 Climbing Kansas City Center
Sun 02:40:21 PM 36.3500 -95.6981 63° Northeast 282 325 13,200 2,244 Climbing Kansas City Center
Sun 02:41:22 PM 36.3903 -95.5956 64° Northeast 295 339 15,500 2,098 Climbing Kansas City Center
Sun 02:42:24 PM 36.4278 -95.5022 63° Northeast 301 346 17,500 1,645 Climbing Kansas City Center
Sun 02:43:26 PM 36.4661 -95.4036 64° Northeast 309 356 18,900 1,355 Climbing Kansas City Center
Sun 02:44:28 PM 36.5058 -95.3039 64° Northeast 318 366 20,300 968 Climbing Kansas City Center
Sun 02:45:30 PM 36.5500 -95.1928 64° Northeast 339 390 20,900 726 Climbing Kansas City Center
Sun 02:46:32 PM 36.5969 -95.0711 64° Northeast 369 425 21,800 919 Climbing Kansas City Center
Sun 02:47:34 PM 36.6447 -94.9472 64° Northeast 390 449 22,800 1,065 Climbing Kansas City Center
Sun 02:48:36 PM 36.7039 -94.7958 64° Northeast 401 461 24,000 1,065 Climbing Kansas City Center
Sun 02:49:38 PM 36.7522 -94.6683 65° Northeast 405 466 25,000 1,016 Climbing Kansas City Center
Sun 02:50:40 PM 36.8025 -94.5394 64° Northeast 410 472 26,100 1,113 Climbing Kansas City Center
Sun 02:51:42 PM 36.8606 -94.4219 58° Northeast 402 463 27,300 1,161 Climbing Kansas City Center
Sun 02:52:44 PM 36.9447 -94.3378 39° Northeast 388 447 28,500 1,171 Climbing Kansas City Center
Sun 02:53:45 PM 37.0272 -94.2558 38° Northeast 381 438 29,700 1,171 Climbing Kansas City Center
Sun 02:54:47 PM 37.1092 -94.1758 38° Northeast 376 433 30,900 1,161 Climbing Kansas City Center
Sun 02:55:49 PM 37.1947 -94.0908 38° Northeast 372 428 32,100 1,065 Climbing Kansas City Center
Sun 02:56:51 PM 37.2772 -94.0125 37° Northeast 371 427 33,100 1,065 Climbing Kansas City Center
Sun 02:57:53 PM 37.3731 -93.9142 39° Northeast 370 426 34,300 919 Climbing Kansas City Center
Sun 02:58:55 PM 37.4536 -93.8328 39° Northeast 370 426 35,000 339 Climbing Kansas City Center
Sun 02:59:57 PM 37.5381 -93.7492 38° Northeast 379 436 35,000  Level Kansas City Center
Sun 03:00:59 PM 37.6258 -93.6603 39° Northeast 395 455 35,000  Level Kansas City Center
Sun 03:02:01 PM 37.7156 -93.5722 38° Northeast 405 466 35,000  Level Kansas City Center
Sun 03:03:03 PM 37.8022 -93.4839 39° Northeast 402 463 35,000  Level Kansas City Center
Sun 03:04:05 PM 37.8900 -93.3947 39° Northeast 400 460 35,000  Level Kansas City Center
Sun 03:05:07 PM 37.9761 -93.3078 39° Northeast 398 458 35,000  Level Kansas City Center
Sun 03:06:09 PM 38.0800 -93.2014 39° Northeast 396 456 35,000  Level Kansas City Center
Sun 03:07:11 PM 38.1653 -93.1150 39° Northeast 392 451 35,000  Level Kansas City Center
Sun 03:08:13 PM 38.2525 -93.0275 38° Northeast 394 453 35,000  Level Kansas City Center
Sun 03:09:15 PM 38.3350 -92.9408 39° Northeast 386 444 35,000  Level Kansas City Center
Sun 03:10:17 PM 38.4186 -92.8550 39° Northeast 383 441 35,000  Level Kansas City Center
Sun 03:11:19 PM 38.5017 -92.7686 39° Northeast 382 440 35,000  Level Kansas City Center
Sun 03:12:20 PM 38.5853 -92.6822 39° Northeast 382 440 35,000  Level Kansas City Center
Sun 03:13:22 PM 38.6669 -92.5967 39° Northeast 380 437 35,000  Level Kansas City Center
Sun 03:14:24 PM 38.7506 -92.5106 39° Northeast 380 437 35,000  Level Kansas City Center
Sun 03:15:26 PM 38.8517 -92.4050 39° Northeast 385 443 35,000  Level Kansas City Center
Sun 03:16:28 PM 38.9342 -92.3169 40° Northeast 385 443 35,000  Level Kansas City Center
Sun 03:17:30 PM 39.0200 -92.2294 38° Northeast 389 448 35,000  Level Kansas City Center
Sun 03:18:32 PM 39.1044 -92.1397 39° Northeast 391 450 35,000  Level Kansas City Center
Sun 03:19:34 PM 39.1714 -92.0292 52° Northeast 391 450 35,000  Level Kansas City Center
Sun 03:20:36 PM 39.2369 -91.9119 54° Northeast 394 453 35,000  Level Kansas City Center
Sun 03:21:38 PM 39.3103 -91.7872 53° Northeast 400 460 35,000  Level Kansas City Center
Sun 03:22:40 PM 39.3828 -91.6608 53° Northeast 400 460 35,000  Level Kansas City Center
Sun 03:23:42 PM 39.4472 -91.5464 54° Northeast 396 456 35,000 -242 Level Kansas City Center
Sun 03:24:44 PM 39.5092 -91.4378 54° Northeast 387 445 34,500 -774 Descending Kansas City Center
Sun 03:25:46 PM 39.5714 -91.3272 54° Northeast 371 427 33,400 -968 Descending Kansas City Center
Sun 03:26:48 PM 39.6264 -91.2281 54° Northeast 364 419 32,500 -919 Descending Kansas City Center
Sun 03:27:50 PM 39.6831 -91.1258 54° Northeast 356 410 31,500 -1,016 Descending Kansas City Center
Sun 03:28:52 PM 39.7653 -91.0239 44° Northeast 363 418 30,400 -1,016 Descending Kansas City Center
Sun 03:29:54 PM 39.8439 -90.9453 38° Northeast 359 413 29,400 -919 Descending Kansas City Center
Sun 03:30:56 PM 39.9239 -90.8642 38° Northeast 362 417 28,500 -919 Descending Kansas City Center
Sun 03:31:58 PM 40.0106 -90.7772 38° Northeast 383 441 27,500 -726 Descending Kansas City Center
Sun 03:33:00 PM 40.1000 -90.6847 38° Northeast 402 463 27,000 -361 Descending Kansas City Center
Sun 03:33:21 PM 40.1419 -90.6450 36° Northeast 412 474 27,000  Level Chicago Center
Sun 03:34:23 PM 40.2289 -90.5558 38° Northeast 413 475 27,000  Level Chicago Center
Sun 03:35:25 PM 40.3214 -90.4606 38° Northeast 418 481 27,000  Level Chicago Center
Sun 03:36:27 PM 40.4347 -90.3447 38° Northeast 427 491 27,000  Level Chicago Center
Sun 03:37:29 PM 40.5353 -90.2422 38° Northeast 433 498 27,000  Level Chicago Center
Sun 03:38:31 PM 40.6306 -90.1428 38° Northeast 438 504 27,000  Level Chicago Center
Sun 03:39:33 PM 40.7261 -90.0453 38° Northeast 437 503 27,000  Level Chicago Center
Sun 03:40:35 PM 40.8175 -89.9447 40° Northeast 433 498 27,000 -387 Level Chicago Center
Sun 03:41:37 PM 40.9156 -89.8464 37° Northeast 436 502 26,200 -912 Descending Chicago Center
Sun 03:42:40 PM 41.0158 -89.7408 38° Northeast 438 504 25,100 -1,008 Descending Chicago Center
Sun 03:43:42 PM 41.1139 -89.6383 38° Northeast 446 513 24,100 -532 Descending Chicago Center
Sun 03:44:44 PM 41.1906 -89.5169 50° Northeast 430 495 24,000 -48 Descending Chicago Center
Sun 03:45:46 PM 41.2561 -89.3533 62° Northeast 417 480 24,000 -1,016 Level Chicago Center
Sun 03:46:48 PM 41.3097 -89.2197 62° Northeast 409 471 21,900 -2,371 Descending Chicago Center
Sun 03:47:50 PM 41.3581 -89.0964 62° Northeast 411 473 19,100 -3,339 Descending Chicago Center
Sun 03:48:52 PM 41.4197 -88.9414 62° Northeast 398 458 15,000 -2,903 Descending Chicago Center
Sun 03:49:54 PM 41.4656 -88.8264 62° Northeast 359 413 13,100 -1,887 Descending Chicago Center
Sun 03:50:56 PM 41.5089 -88.7161 90° East 339 390 11,100 -1,016 Descending Chicago Center
Sun 03:51:00 PM 41.5000 -88.6873 90° East  Level FlightAware Approximate
Sun 03:51:58 PM 41.5453 -88.6231 62° Northeast 287 330 11,000  Level Chicago Center
Sun 03:53:00 PM 41.5794 -88.5342 63° Northeast 271 312 11,000 -290 Level Chicago Center
Sun 03:54:02 PM 41.5897 -88.4375 82° East 265 305 10,400 -813 Descending Chicago Center
Sun 03:56:12 PM 41.6667 -88.2333 63° Northeast 269 310 8,400 -1,091 Descending Chicago TRACON
Sun 03:57:09 PM 41.7161 -88.1833 37° Northeast 270 311 7,000 -1,462 Descending Chicago Center
Sun 03:58:11 PM 41.7678 -88.1169 44° Northeast 257 296 5,500 -1,355 Descending Chicago Center
Sun 03:59:13 PM 41.8206 -88.0581 40° Northeast 250 288 4,200 -1,258 Descending Chicago Center
Sun 04:00:15 PM 41.8708 -87.9983 41° Northeast 248 285 2,900 -1,263 Descending Chicago Center
Sun 04:01:07 PM 41.9167 -87.9500 38° Northeast 190 219 1,800 -1,018 Descending Chicago TRACON
Sun 04:02:07 PM 41.9500 -87.9167 37° Northeast 128 147 1,000 -800 Descending Chicago TRACON
Sun 04:04:00 PM 41.9667 -87.9000 37° Northeast  Level FlightAware Approximate

Login

Don't have an account? Register now (free) for customized features, flight alerts, and more!